Time;durP1;ratioP1;P1;durP2;ratioP2;P2;SDS_P1;SDS_P2;PMS_P1;PMS_P2;Temp;Humidity;BMP_temperature;BMP_pressure;BME280_temperature;BME280_humidity;BME280_pressure;Samples;Min_cycle;Max_cycle;Signal;HPM_P1;HPM_P2
2022/06/22 00:02:31;;;;;;;3.83;2.20;;;16.30;90.00;;;;;;6250039;22;20459;-93
2022/06/22 00:05:14;;;;;;;2.92;1.70;;;16.30;90.10;;;;;;6276614;22;20070;-93
2022/06/22 00:07:45;;;;;;;3.47;1.73;;;16.30;89.80;;;;;;6278435;22;20054;-93
2022/06/22 00:11:01;;;;;;;2.08;1.63;;;16.40;89.10;;;;;;6278355;22;20011;-94
2022/06/22 00:13:29;;;;;;;2.03;1.35;;;16.40;88.40;;;;;;6256697;22;20011;-93
2022/06/22 00:16:03;;;;;;;3.92;1.50;;;16.30;88.10;;;;;;6277358;22;20110;-94
2022/06/22 00:18:38;;;;;;;4.20;2.22;;;16.30;88.70;;;;;;6280151;22;20049;-92
2022/06/22 00:21:17;;;;;;;2.70;1.87;;;16.30;89.80;;;;;;6280932;22;20004;-93
2022/06/22 00:23:49;;;;;;;4.47;1.65;;;16.30;90.10;;;;;;6285292;22;20003;-93
2022/06/22 00:26:24;;;;;;;4.40;1.65;;;16.40;90.10;;;;;;6285069;22;20004;-92
2022/06/22 00:29:09;;;;;;;7.25;1.73;;;16.30;89.70;;;;;;6283521;22;20250;-93
2022/06/22 00:31:42;;;;;;;4.05;1.67;;;16.30;88.60;;;;;;6281625;22;20009;-93
2022/06/22 00:34:13;;;;;;;1.77;1.65;;;16.20;87.60;;;;;;6274478;22;20027;-93
2022/06/22 00:37:04;;;;;;;2.33;1.50;;;16.10;87.40;;;;;;6274039;22;20071;-93
2022/06/22 00:39:30;;;;;;;3.63;1.60;;;16.00;87.40;;;;;;6272566;22;20028;-93
2022/06/22 00:42:21;;;;;;;3.08;1.98;;;16.00;87.40;;;;;;6274425;22;20046;-93
2022/06/22 00:45:07;;;;;;;3.10;1.65;;;15.90;87.30;;;;;;6237271;22;20008;-93
2022/06/22 00:47:36;;;;;;;2.78;1.42;;;15.70;87.60;;;;;;6276011;22;20004;-94
2022/06/22 00:50:19;;;;;;;3.40;1.70;;;15.60;87.70;;;;;;6277504;22;20094;-93
2022/06/22 00:52:55;;;;;;;3.08;1.80;;;15.60;88.20;;;;;;6275780;22;20015;-94
2022/06/22 00:55:30;;;;;;;2.97;1.80;;;15.50;88.30;;;;;;6278031;22;20035;-94
2022/06/22 00:58:02;;;;;;;3.53;1.63;;;15.50;88.60;;;;;;6277757;22;20015;-94
2022/06/22 01:00:40;;;;;;;4.28;1.85;;;15.50;89.40;;;;;;6277697;22;20015;-93
2022/06/22 01:03:22;;;;;;;3.75;1.80;;;15.40;90.10;;;;;;6276429;22;20011;-93
2022/06/22 01:06:00;;;;;;;2.08;1.80;;;15.40;90.10;;;;;;6277928;22;20007;-94
2022/06/22 01:08:52;;;;;;;5.05;1.80;;;15.40;90.00;;;;;;6277179;22;20025;-93
2022/06/22 01:14:26;;;;;;;4.68;1.60;;;15.40;90.30;;;;;;6279840;22;20007;-94
2022/06/22 01:16:55;;;;;;;1.90;1.52;;;15.40;89.80;;;;;;6281544;22;20000;-93
2022/06/22 01:19:44;;;;;;;2.05;1.60;;;15.40;89.60;;;;;;6285884;22;20008;-93
2022/06/22 01:22:45;;;;;;;2.55;1.48;;;15.30;88.80;;;;;;6276148;22;20011;-93
2022/06/22 01:25:39;;;;;;;2.45;1.77;;;15.30;88.60;;;;;;6275521;22;20027;-93
2022/06/22 01:28:05;;;;;;;5.15;1.90;;;15.20;88.60;;;;;;6277300;22;20031;-93
2022/06/22 01:30:38;;;;;;;2.28;2.03;;;15.20;89.30;;;;;;6276222;22;20041;-93
2022/06/22 01:33:17;;;;;;;4.63;1.83;;;15.20;90.10;;;;;;6277003;22;20008;-93
2022/06/22 01:35:43;;;;;;;2.75;1.92;;;15.10;90.40;;;;;;6277422;22;20736;-93
2022/06/22 01:38:18;;;;;;;4.20;2.15;;;15.20;90.60;;;;;;6275689;22;20011;-94
2022/06/22 01:40:49;;;;;;;2.28;2.00;;;15.20;90.70;;;;;;6276791;22;20439;-92
2022/06/22 01:43:29;;;;;;;2.00;1.73;;;15.20;90.60;;;;;;6276040;22;20004;-95
2022/06/22 01:46:23;;;;;;;3.17;2.50;;;15.20;90.30;;;;;;6276798;22;20000;-92
2022/06/22 01:49:08;;;;;;;2.67;2.13;;;15.10;89.20;;;;;;6275939;22;20011;-94
2022/06/22 01:51:58;;;;;;;4.78;2.10;;;15.10;89.50;;;;;;6277309;22;20027;-92
2022/06/22 01:54:36;;;;;;;3.17;2.20;;;15.10;90.20;;;;;;6277206;22;20056;-93
2022/06/22 01:57:12;;;;;;;3.00;2.08;;;15.00;90.50;;;;;;6277270;22;20489;-92
2022/06/22 01:59:59;;;;;;;3.97;2.10;;;15.00;90.80;;;;;;6276997;22;20259;-92
2022/06/22 02:02:35;;;;;;;2.53;1.73;;;15.00;91.20;;;;;;6275638;22;20007;-93
2022/06/22 02:05:24;;;;;;;4.03;1.90;;;15.00;91.10;;;;;;6275505;22;20008;-93
2022/06/22 02:08:12;;;;;;;2.42;2.08;;;15.00;91.00;;;;;;6276682;22;20031;-92
2022/06/22 02:10:44;;;;;;;3.15;2.10;;;15.00;91.00;;;;;;6276709;22;20378;-93
2022/06/22 02:13:47;;;;;;;4.38;2.20;;;15.00;91.00;;;;;;6276997;22;20011;-94
2022/06/22 02:16:33;;;;;;;2.83;2.30;;;15.00;91.30;;;;;;6274870;22;20053;-93
2022/06/22 02:18:58;;;;;;;3.10;2.05;;;15.00;91.60;;;;;;6276283;22;20021;-92
2022/06/22 02:21:49;;;;;;;2.85;2.30;;;15.00;91.90;;;;;;6275428;22;20003;-91
2022/06/22 02:24:30;;;;;;;2.95;2.15;;;15.00;91.60;;;;;;6271939;22;20003;-90
2022/06/22 02:27:14;;;;;;;3.20;2.10;;;15.00;91.50;;;;;;6271541;22;20008;-92
2022/06/22 02:34:08;;;;;;;2.78;2.20;;;15.00;91.70;;;;;;6285066;22;20007;-90
2022/06/22 02:36:44;;;;;;;3.00;2.35;;;15.00;91.90;;;;;;6267790;22;20090;-86
2022/06/22 02:39:11;;;;;;;;;;;15.00;92.00;;;;;;6269192;22;20444;-85
2022/06/22 02:44:44;;;;;;;3.15;2.35;;;15.00;92.00;;;;;;6267233;22;20011;-85
2022/06/22 02:47:20;;;;;;;3.00;2.45;;;15.00;92.20;;;;;;6273943;22;20130;-90
2022/06/22 02:49:55;;;;;;;3.58;2.25;;;15.10;92.60;;;;;;6274965;22;20012;-92
2022/06/22 02:52:26;;;;;;;2.47;2.20;;;15.10;92.50;;;;;;6272691;22;20008;-90
2022/06/22 02:54:56;;;;;;;2.13;1.92;;;15.10;92.50;;;;;;6273059;22;20087;-91
2022/06/22 02:57:47;;;;;;;3.53;2.72;;;15.10;92.30;;;;;;6274637;22;20007;-90
2022/06/22 03:00:21;;;;;;;3.22;2.38;;;15.20;92.40;;;;;;6270776;22;20016;-85
2022/06/22 03:02:56;;;;;;;2.65;2.45;;;15.20;92.60;;;;;;6267695;22;20027;-84
2022/06/22 03:05:24;;;;;;;4.32;2.40;;;15.20;92.60;;;;;;6269237;22;20385;-86
2022/06/22 03:07:53;;;;;;;2.92;2.28;;;15.20;93.00;;;;;;6266928;22;20158;-86
2022/06/22 03:10:25;;;;;;;4.03;2.25;;;15.20;92.50;;;;;;6282801;22;20000;-90
2022/06/22 03:12:57;;;;;;;4.07;2.33;;;15.20;92.20;;;;;;6275318;22;20090;-90
2022/06/22 03:15:32;;;;;;;3.22;2.55;;;15.20;92.10;;;;;;6275110;22;20093;-90
2022/06/22 03:18:00;;;;;;;3.20;1.90;;;15.20;91.70;;;;;;6274329;22;20218;-90
2022/06/22 03:20:32;;;;;;;3.03;1.77;;;15.20;91.50;;;;;;6274543;22;20059;-91
2022/06/22 03:23:23;;;;;;;4.35;1.90;;;15.10;91.50;;;;;;6273596;22;20007;-90
2022/06/22 03:26:10;;;;;;;2.33;1.70;;;15.10;91.30;;;;;;6226452;22;20454;-91
2022/06/22 03:28:41;;;;;;;3.60;1.88;;;15.00;91.30;;;;;;6273145;22;19996;-89
2022/06/22 03:31:14;;;;;;;1.70;1.60;;;15.00;91.30;;;;;;6270634;22;20106;-85
2022/06/22 03:33:48;;;;;;;3.03;1.90;;;15.00;91.10;;;;;;6269113;22;20022;-85
2022/06/22 03:36:23;;;;;;;2.38;2.00;;;15.00;91.10;;;;;;6267046;22;20379;-86
2022/06/22 03:39:11;;;;;;;2.17;1.98;;;15.00;91.10;;;;;;6268617;22;20034;-86
2022/06/22 03:42:00;;;;;;;4.78;1.90;;;14.90;91.10;;;;;;6259093;22;20022;-86
2022/06/22 03:44:40;;;;;;;3.75;1.80;;;14.90;90.90;;;;;;6267155;22;20712;-85
2022/06/22 03:47:43;;;;;;;3.55;2.10;;;14.80;90.60;;;;;;6279229;22;20030;-86
2022/06/22 03:50:27;;;;;;;3.05;1.90;;;14.80;90.90;;;;;;6267737;22;20012;-86
2022/06/22 03:53:25;;;;;;;3.00;1.77;;;14.80;91.00;;;;;;6267430;22;20022;-87
2022/06/22 03:55:58;;;;;;;2.90;2.00;;;14.70;91.10;;;;;;6266967;22;20019;-85
2022/06/22 03:58:25;;;;;;;2.33;2.10;;;14.70;91.20;;;;;;6276897;22;20038;-86
2022/06/22 04:00:52;;;;;;;3.83;2.15;;;14.70;91.10;;;;;;6266788;22;20012;-85
2022/06/22 04:03:19;;;;;;;6.65;2.15;;;14.70;91.00;;;;;;6268930;22;20073;-86
2022/06/22 04:05:56;;;;;;;3.65;2.20;;;14.60;91.00;;;;;;6271690;22;20003;-90
2022/06/22 04:08:32;;;;;;;2.58;2.38;;;14.60;91.20;;;;;;6273179;22;20015;-90
2022/06/22 04:11:14;;;;;;;2.28;1.98;;;14.60;91.50;;;;;;6273733;22;20015;-91
2022/06/22 04:13:50;;;;;;;2.85;2.53;;;14.50;91.70;;;;;;6273479;22;20011;-90
2022/06/22 04:16:20;;;;;;;2.47;2.28;;;14.50;92.00;;;;;;6274847;22;20007;-88
2022/06/22 04:19:09;;;;;;;4.97;3.10;;;14.50;92.30;;;;;;6274004;22;20016;-90
2022/06/22 04:21:39;;;;;;;5.22;3.80;;;14.60;92.80;;;;;;6273287;22;20090;-91
2022/06/22 04:24:13;;;;;;;5.00;3.33;;;14.70;93.20;;;;;;6248045;22;20090;-90
2022/06/22 04:27:11;;;;;;;4.28;3.88;;;14.70;93.60;;;;;;6271127;22;20089;-86
2022/06/22 04:30:09;;;;;;;6.28;3.75;;;14.80;93.80;;;;;;6270443;22;20008;-86
2022/06/22 04:32:47;;;;;;;6.47;4.60;;;14.90;94.10;;;;;;6269393;22;20012;-86
2022/06/22 04:35:42;;;;;;;4.07;3.67;;;15.00;94.30;;;;;;6269794;22;20033;-87
2022/06/22 04:38:40;;;;;;;6.30;4.32;;;15.10;94.60;;;;;;6275878;22;20290;-91
2022/06/22 04:41:25;;;;;;;6.20;4.78;;;15.20;94.70;;;;;;6275525;22;20089;-85
2022/06/22 04:43:53;;;;;;;4.80;4.20;;;15.30;94.80;;;;;;6272099;22;20014;-86
2022/06/22 04:46:28;;;;;;;5.95;4.72;;;15.40;94.90;;;;;;6270721;22;20012;-85
2022/06/22 04:48:57;;;;;;;7.65;4.72;;;15.40;95.00;;;;;;6271615;22;20348;-86
2022/06/22 04:51:28;;;;;;;5.75;4.28;;;15.50;95.10;;;;;;6277875;22;20522;-86
2022/06/22 04:53:56;;;;;;;6.00;4.47;;;15.60;95.20;;;;;;6280675;22;20012;-86
2022/06/22 04:56:52;;;;;;;5.13;4.63;;;15.70;95.30;;;;;;6280939;22;20018;-85
2022/06/22 04:59:21;;;;;;;5.28;4.20;;;15.80;95.40;;;;;;6260907;22;20016;-86
2022/06/22 05:02:04;;;;;;;5.60;4.70;;;15.90;95.40;;;;;;6280943;22;20008;-85
2022/06/22 05:04:39;;;;;;;4.63;4.20;;;15.90;95.40;;;;;;6279777;22;20015;-85
2022/06/22 05:07:37;;;;;;;4.35;3.85;;;16.00;95.50;;;;;;6276376;22;20081;-86
2022/06/22 05:10:28;;;;;;;3.95;3.63;;;16.10;95.60;;;;;;6275048;22;20015;-86
2022/06/22 05:13:05;;;;;;;4.85;3.83;;;16.20;95.80;;;;;;6273180;22;20011;-86
2022/06/22 05:15:38;;;;;;;5.85;5.07;;;16.30;96.10;;;;;;6270667;22;20020;-86
2022/06/22 05:18:29;;;;;;;6.25;4.50;;;16.40;95.80;;;;;;6268600;22;20402;-86
2022/06/22 05:20:59;;;;;;;7.13;5.07;;;16.50;95.80;;;;;;6270401;22;20607;-86
2022/06/22 05:23:27;;;;;;;7.70;4.28;;;16.60;95.70;;;;;;6269124;22;20033;-86
2022/06/22 05:25:57;;;;;;;7.00;4.20;;;16.70;95.70;;;;;;6270447;22;20008;-86
2022/06/22 05:28:39;;;;;;;8.63;4.68;;;16.80;95.60;;;;;;6242652;22;20008;-86
2022/06/22 05:31:13;;;;;;;5.32;3.75;;;16.90;95.50;;;;;;6271132;22;20015;-85
2022/06/22 05:33:47;;;;;;;5.68;4.30;;;17.00;95.20;;;;;;6271020;22;20102;-85
2022/06/22 05:36:19;;;;;;;6.97;3.80;;;17.10;95.10;;;;;;6270771;22;20022;-86
2022/06/22 05:38:51;;;;;;;4.60;3.60;;;17.20;95.00;;;;;;6270826;22;20026;-85
2022/06/22 05:41:24;;;;;;;4.22;3.30;;;17.30;94.90;;;;;;6271506;22;20375;-86
2022/06/22 05:43:50;;;;;;;3.58;3.17;;;17.30;94.70;;;;;;6272379;22;20020;-93
2022/06/22 05:46:17;;;;;;;6.75;3.90;;;17.40;94.60;;;;;;6276659;22;19999;-90
2022/06/22 05:48:47;;;;;;;4.45;3.17;;;17.50;94.40;;;;;;6278789;22;20008;-90
2022/06/22 05:51:29;;;;;;;7.05;3.25;;;17.60;94.30;;;;;;6282698;22;20019;-90
2022/06/22 05:54:28;;;;;;;3.80;3.17;;;17.70;94.10;;;;;;6278491;22;20008;-92
2022/06/22 05:57:15;;;;;;;4.72;2.75;;;17.80;93.70;;;;;;6275755;22;20000;-91
2022/06/22 05:59:45;;;;;;;2.85;2.60;;;17.90;93.20;;;;;;6275309;22;20011;-90
2022/06/22 06:02:54;;;;;;;4.72;2.55;;;18.10;93.00;;;;;;6273976;22;20490;-91
2022/06/22 06:05:27;;;;;;;3.83;2.85;;;18.20;92.90;;;;;;6186462;23;20013;-91
2022/06/22 06:07:56;;;;;;;3.53;2.05;;;18.30;92.50;;;;;;6265264;22;20000;-91
2022/06/22 06:10:32;;;;;;;3.83;2.72;;;18.50;92.30;;;;;;6274129;22;20015;-90
2022/06/22 06:12:58;;;;;;;;;;;18.60;91.80;;;;;;6274639;22;20014;-91
2022/06/22 06:15:24;;;;;;;6.30;1.97;;;18.80;91.10;;;;;;6275551;22;19899;-91
2022/06/22 06:17:54;;;;;;;3.88;2.10;;;18.90;90.10;;;;;;6275107;22;20004;-90
2022/06/22 06:20:25;;;;;;;4.07;1.60;;;19.00;88.40;;;;;;6275095;22;20015;-91
2022/06/22 06:22:58;;;;;;;3.28;1.60;;;19.20;85.30;;;;;;6274631;22;20008;-90
2022/06/22 06:28:35;;;;;;;2.65;1.30;;;19.40;81.60;;;;;;6275317;22;20007;-90
2022/06/22 06:31:27;;;;;;;4.82;1.30;;;19.50;80.80;;;;;;6275393;22;20004;-91
2022/06/22 06:33:55;;;;;;;2.42;1.17;;;19.70;79.50;;;;;;6274493;22;20004;-91
2022/06/22 06:36:30;;;;;;;2.47;1.50;;;19.80;76.50;;;;;;6272808;22;20097;-84
2022/06/22 06:39:00;;;;;;;2.95;1.17;;;20.00;74.60;;;;;;6268802;22;20012;-85
2022/06/22 06:42:03;;;;;;;2.30;1.50;;;20.10;71.00;;;;;;6273784;22;19999;-94
2022/06/22 06:44:34;;;;;;;3.03;1.33;;;20.30;72.60;;;;;;6275133;22;20023;-92
2022/06/22 06:47:05;;;;;;;3.47;1.10;;;20.40;71.40;;;;;;6275655;22;20007;-91
2022/06/22 06:49:37;;;;;;;4.95;1.40;;;20.50;70.30;;;;;;6248263;22;20003;-93
2022/06/22 06:52:20;;;;;;;3.42;1.13;;;20.70;66.30;;;;;;6247159;22;20015;-93
2022/06/22 06:54:49;;;;;;;2.42;1.08;;;20.90;64.40;;;;;;6274603;22;20216;-93
2022/06/22 06:57:18;;;;;;;6.93;1.52;;;20.90;65.80;;;;;;6274439;22;20089;-93
2022/06/22 06:59:49;;;;;;;2.45;1.00;;;21.00;64.70;;;;;;6276052;22;20098;-93
2022/06/22 07:02:21;;;;;;;5.32;1.20;;;21.10;62.30;;;;;;6276225;22;20102;-93
2022/06/22 07:04:47;;;;;;;2.13;1.00;;;21.30;61.50;;;;;;6276142;22;20506;-92
2022/06/22 07:07:13;;;;;;;3.00;0.95;;;21.40;60.90;;;;;;6271856;22;20050;-85
2022/06/22 07:09:40;;;;;;;4.97;1.20;;;21.40;59.50;;;;;;6266817;22;20239;-85
2022/06/22 07:12:39;;;;;;;2.85;1.20;;;21.50;59.50;;;;;;6273787;22;20003;-93
2022/06/22 07:15:12;;;;;;;2.20;1.20;;;21.60;58.10;;;;;;6274641;22;20065;-91
2022/06/22 07:17:38;;;;;;;7.55;1.20;;;21.70;58.30;;;;;;6276537;22;20004;-93
2022/06/22 07:20:13;;;;;;;2.30;1.20;;;21.80;58.30;;;;;;6273670;22;20008;-92
2022/06/22 07:22:45;;;;;;;5.47;1.38;;;21.80;57.30;;;;;;6273212;22;20003;-93
2022/06/22 07:25:30;;;;;;;3.55;1.60;;;21.90;55.40;;;;;;6274465;22;20008;-93
2022/06/22 07:28:15;;;;;;;4.15;1.23;;;21.90;55.60;;;;;;6273979;22;20004;-92
2022/06/22 07:30:56;;;;;;;3.65;1.15;;;22.00;58.50;;;;;;6275902;22;20640;-85
2022/06/22 07:33:47;;;;;;;4.03;1.38;;;22.00;56.90;;;;;;6279734;22;20008;-87
2022/06/22 07:36:37;;;;;;;2.90;1.02;;;22.10;56.80;;;;;;6267586;22;20016;-86
2022/06/22 07:39:28;;;;;;;2.97;1.20;;;22.20;55.90;;;;;;6268412;22;20012;-86
2022/06/22 07:41:54;;;;;;;3.40;1.00;;;22.30;55.80;;;;;;6269610;22;20393;-87
2022/06/22 07:44:41;;;;;;;3.10;1.15;;;22.50;53.70;;;;;;6269093;22;20015;-87
2022/06/22 07:47:33;;;;;;;5.13;1.27;;;22.50;53.70;;;;;;6268934;22;20000;-86
2022/06/22 07:50:14;;;;;;;3.65;1.20;;;22.60;52.30;;;;;;6268453;22;20065;-87
2022/06/22 07:53:17;;;;;;;4.10;1.10;;;22.70;53.70;;;;;;6268675;22;20374;-86
2022/06/22 07:55:57;;;;;;;2.75;1.20;;;22.70;52.30;;;;;;6215631;22;20069;-87
2022/06/22 07:58:23;;;;;;;3.60;1.15;;;22.80;52.60;;;;;;6268522;22;20115;-87
2022/06/22 08:00:54;;;;;;;2.85;1.23;;;22.90;51.40;;;;;;6269860;22;20011;-86
2022/06/22 08:03:42;;;;;;;2.15;1.20;;;23.00;50.70;;;;;;6244913;22;20382;-88
2022/06/22 08:06:17;;;;;;;4.22;1.38;;;23.00;49.60;;;;;;6269956;22;20012;-85
2022/06/22 08:08:54;;;;;;;1.63;1.00;;;23.00;50.70;;;;;;6268872;22;20026;-85
2022/06/22 08:11:32;;;;;;;4.32;1.08;;;23.00;50.00;;;;;;6268842;22;20019;-85
2022/06/22 08:14:10;;;;;;;3.47;0.82;;;23.00;50.10;;;;;;6268717;22;20039;-86
2022/06/22 08:16:49;;;;;;;2.33;0.98;;;23.10;50.00;;;;;;6270597;22;20054;-85
2022/06/22 08:19:15;;;;;;;3.42;1.05;;;23.20;49.90;;;;;;6269901;22;20022;-86
2022/06/22 08:21:46;;;;;;;2.40;1.00;;;23.20;49.10;;;;;;6269743;22;20000;-85
2022/06/22 08:24:14;;;;;;;1.27;0.85;;;23.30;47.70;;;;;;6268514;22;20744;-87
2022/06/22 08:26:41;;;;;;;2.47;1.00;;;23.30;48.50;;;;;;6270365;22;20034;-86
2022/06/22 08:29:07;;;;;;;2.38;0.90;;;23.40;48.80;;;;;;6270278;22;20682;-86
2022/06/22 08:31:52;;;;;;;3.10;1.00;;;23.50;48.10;;;;;;6270065;22;20053;-85
2022/06/22 08:34:26;;;;;;;2.30;1.00;;;23.50;48.40;;;;;;6270300;22;20053;-87
2022/06/22 08:37:06;;;;;;;3.33;1.38;;;23.50;47.30;;;;;;6271838;22;20004;-93
2022/06/22 08:39:34;;;;;;;1.75;0.95;;;23.60;48.40;;;;;;6276402;22;20086;-92
2022/06/22 08:42:21;;;;;;;2.45;0.90;;;23.60;46.20;;;;;;6271980;22;20039;-85
2022/06/22 08:45:13;;;;;;;3.83;1.15;;;23.60;45.80;;;;;;6269916;22;20086;-85
2022/06/22 08:47:48;;;;;;;2.72;0.93;;;23.70;46.10;;;;;;6269735;22;20016;-86
2022/06/22 08:50:26;;;;;;;1.50;1.00;;;23.70;46.10;;;;;;6269574;22;20385;-87
2022/06/22 08:53:11;;;;;;;6.88;1.23;;;23.80;46.80;;;;;;6268661;22;20026;-87
2022/06/22 08:55:43;;;;;;;3.40;1.02;;;23.90;46.20;;;;;;6268014;22;20007;-86
2022/06/22 08:58:35;;;;;;;4.28;0.90;;;23.90;47.70;;;;;;6269227;22;20012;-85
2022/06/22 09:01:39;;;;;;;3.92;1.30;;;24.00;46.30;;;;;;6239764;22;20015;-85
2022/06/22 09:04:29;;;;;;;4.50;1.30;;;24.10;46.10;;;;;;6253201;22;20015;-86
2022/06/22 09:07:04;;;;;;;1.30;0.52;;;24.10;46.00;;;;;;6273334;22;20041;-93
2022/06/22 09:09:37;;;;;;;;;;;24.00;44.30;;;;;;6278034;22;20075;-93
2022/06/22 09:12:26;;;;;;;4.38;1.10;;;24.10;45.50;;;;;;6275979;22;19926;-93
2022/06/22 09:15:01;;;;;;;2.88;1.10;;;24.10;44.60;;;;;;6276615;22;20027;-92
2022/06/22 09:17:47;;;;;;;1.83;1.20;;;24.20;45.20;;;;;;6278142;22;20006;-93
2022/06/22 09:20:19;;;;;;;1.90;0.80;;;24.30;45.10;;;;;;6281129;22;20007;-93
2022/06/22 09:23:08;;;;;;;7.22;1.10;;;24.40;44.70;;;;;;6283820;22;20027;-94
2022/06/22 09:25:55;;;;;;;3.05;0.90;;;24.40;45.50;;;;;;6284902;22;20008;-93
2022/06/22 09:29:04;;;;;;;3.00;1.00;;;24.40;44.70;;;;;;6284387;22;20010;-91
2022/06/22 09:31:36;;;;;;;4.43;0.90;;;24.50;46.00;;;;;;6266065;22;20094;-92
2022/06/22 09:34:44;;;;;;;3.75;1.30;;;24.60;44.80;;;;;;6280620;22;20007;-93
2022/06/22 09:37:25;;;;;;;6.47;1.00;;;24.80;47.40;;;;;;6278018;22;20086;-92
2022/06/22 09:39:57;;;;;;;2.53;0.82;;;24.90;44.20;;;;;;6276283;22;20007;-89
2022/06/22 09:43:06;;;;;;;1.60;0.88;;;24.90;44.30;;;;;;6276814;22;20004;-92
2022/06/22 09:45:40;;;;;;;4.28;1.00;;;24.90;45.30;;;;;;6275983;22;20003;-90
2022/06/22 09:48:21;;;;;;;2.08;0.90;;;25.00;44.10;;;;;;6267957;22;20019;-87
2022/06/22 09:51:21;;;;;;;3.28;1.10;;;25.00;44.70;;;;;;6269151;22;20016;-86
2022/06/22 09:53:58;;;;;;;5.72;1.23;;;25.10;44.80;;;;;;6268293;22;20056;-86
2022/06/22 09:56:59;;;;;;;1.58;1.20;;;25.10;45.10;;;;;;6269150;22;20012;-85
2022/06/22 09:59:32;;;;;;;2.55;1.17;;;25.20;44.40;;;;;;6269462;22;20106;-87
2022/06/22 10:02:31;;;;;;;6.07;3.38;;;25.10;45.30;;;;;;6279824;22;20049;-86
2022/06/22 10:04:57;;;;;;;1.35;0.90;;;25.10;44.50;;;;;;6269621;22;20046;-86
2022/06/22 10:07:52;;;;;;;4.97;1.05;;;25.10;43.40;;;;;;6269487;22;20008;-87
2022/06/22 10:10:43;;;;;;;3.28;1.10;;;25.10;43.50;;;;;;6244543;22;20049;-86
2022/06/22 10:13:12;;;;;;;2.85;1.10;;;25.20;43.40;;;;;;6268007;22;20091;-86
2022/06/22 10:15:53;;;;;;;3.08;1.05;;;25.40;44.00;;;;;;6267048;22;20014;-87
2022/06/22 10:18:37;;;;;;;1.27;0.80;;;25.40;43.40;;;;;;6269803;22;20015;-85
2022/06/22 10:21:06;;;;;;;3.88;1.02;;;25.50;43.50;;;;;;6268725;22;20017;-85
2022/06/22 10:24:07;;;;;;;1.83;1.05;;;25.60;42.90;;;;;;6270579;22;20004;-92
2022/06/22 10:26:48;;;;;;;8.18;1.05;;;25.60;39.60;;;;;;6241213;22;20597;-85
2022/06/22 10:29:25;;;;;;;3.15;1.00;;;25.60;41.20;;;;;;6272982;22;20373;-93
2022/06/22 10:32:01;;;;;;;2.38;0.95;;;25.70;42.30;;;;;;6275292;22;20034;-92
2022/06/22 10:34:55;;;;;;;4.60;1.20;;;25.80;43.20;;;;;;6245704;22;20012;-85
2022/06/22 10:37:45;;;;;;;1.83;0.98;;;26.00;42.50;;;;;;6268803;22;20012;-85
2022/06/22 10:46:19;;;;;;;2.92;0.80;;;26.00;41.20;;;;;;6276531;22;20000;-94
2022/06/22 10:49:12;;;;;;;3.10;0.80;;;26.10;40.50;;;;;;6272574;22;20004;-93
2022/06/22 10:51:46;;;;;;;0.95;0.65;;;26.20;40.10;;;;;;6273917;22;20385;-94
2022/06/22 10:54:44;;;;;;;2.10;0.80;;;26.20;38.00;;;;;;6274533;22;20012;-94
2022/06/22 10:57:16;;;;;;;4.28;1.10;;;26.40;37.80;;;;;;6274500;22;20015;-92
2022/06/22 10:59:58;;;;;;;4.05;0.90;;;26.60;41.10;;;;;;6275411;22;20057;-93
2022/06/22 11:02:48;;;;;;;1.60;0.90;;;26.70;40.30;;;;;;6276588;22;20004;-92
2022/06/22 11:05:45;;;;;;;1.67;0.75;;;26.70;39.50;;;;;;6276410;22;20427;-93
2022/06/22 11:08:18;;;;;;;;;;;26.70;38.70;;;;;;6276717;22;20007;-93
2022/06/22 11:11:08;;;;;;;2.47;0.77;;;26.70;38.50;;;;;;6275013;22;19984;-92
2022/06/22 11:14:11;;;;;;;2.25;0.70;;;26.60;38.00;;;;;;6284080;22;20015;-94
2022/06/22 11:16:59;;;;;;;1.80;0.85;;;26.50;38.50;;;;;;6276066;22;20065;-92
2022/06/22 11:19:46;;;;;;;2.20;0.90;;;26.60;37.50;;;;;;6273723;22;20033;-92
2022/06/22 11:22:45;;;;;;;1.35;0.70;;;26.60;36.20;;;;;;6276020;22;20008;-93
2022/06/22 11:31:36;;;;;;;4.35;0.80;;;26.50;36.00;;;;;;6273993;22;20011;-92
2022/06/22 11:34:35;;;;;;;1.40;0.73;;;26.40;36.00;;;;;;6247667;22;20396;-92
2022/06/22 11:37:17;;;;;;;1.25;0.68;;;26.50;37.30;;;;;;6274113;22;20011;-94
2022/06/22 11:39:43;;;;;;;2.22;0.70;;;26.50;35.90;;;;;;6274468;22;20007;-93
2022/06/22 11:42:12;;;;;;;4.07;1.08;;;26.50;36.00;;;;;;6276542;22;20030;-92
2022/06/22 11:48:02;;;;;;;2.50;1.00;;;26.50;35.70;;;;;;6272679;22;20008;-86
2022/06/22 11:50:53;;;;;;;3.28;0.90;;;26.60;36.00;;;;;;6270772;22;20016;-86
2022/06/22 11:53:53;;;;;;;1.27;0.80;;;26.70;35.10;;;;;;6271059;22;20041;-87
2022/06/22 11:56:37;;;;;;;5.15;0.90;;;26.70;34.70;;;;;;6267526;22;20444;-86
2022/06/22 11:59:34;;;;;;;3.40;0.90;;;26.70;33.60;;;;;;6273446;22;20011;-92
2022/06/22 12:02:18;;;;;;;3.55;0.60;;;26.70;36.80;;;;;;6275588;22;20008;-92
2022/06/22 12:05:11;;;;;;;1.38;0.80;;;26.70;36.50;;;;;;6272196;22;20012;-88
2022/06/22 12:07:56;;;;;;;1.55;0.85;;;26.80;37.30;;;;;;6278931;22;20061;-86
2022/06/22 12:10:45;;;;;;;2.83;0.77;;;26.90;37.10;;;;;;6277233;22;20031;-85
2022/06/22 12:13:36;;;;;;;1.95;0.88;;;27.00;36.30;;;;;;6259243;22;20018;-85
2022/06/22 12:16:26;;;;;;;1.33;1.13;;;27.00;35.60;;;;;;6266145;22;20004;-85
2022/06/22 12:19:07;;;;;;;1.80;0.90;;;27.10;37.00;;;;;;6275125;22;20523;-91
2022/06/22 12:21:58;;;;;;;3.58;0.90;;;27.10;35.90;;;;;;6276194;22;20027;-91
2022/06/22 12:24:36;;;;;;;2.60;0.77;;;27.00;37.40;;;;;;6275865;22;20024;-92
2022/06/22 12:27:02;;;;;;;1.55;0.70;;;27.00;37.40;;;;;;6271908;22;20018;-85
2022/06/22 12:29:50;;;;;;;0.63;0.60;;;27.10;38.40;;;;;;6265807;22;20008;-86
2022/06/22 12:32:46;;;;;;;1.98;0.85;;;27.10;37.10;;;;;;6268220;22;20092;-85
2022/06/22 12:35:21;;;;;;;;;;;27.10;36.90;;;;;;6268590;22;20011;-84
2022/06/22 12:38:00;;;;;;;1.52;0.88;;;27.20;37.20;;;;;;6278144;22;19994;-84
2022/06/22 12:40:37;;;;;;;2.80;0.77;;;27.30;36.50;;;;;;6269825;22;20018;-87
2022/06/22 12:43:28;;;;;;;3.08;0.80;;;27.40;35.30;;;;;;6278289;22;20012;-85
2022/06/22 12:45:56;;;;;;;3.40;0.85;;;27.20;35.70;;;;;;6278777;22;20008;-86
2022/06/22 12:48:37;;;;;;;2.92;0.82;;;27.10;33.90;;;;;;6267843;22;20473;-86
2022/06/22 12:51:29;;;;;;;1.38;0.90;;;27.10;34.60;;;;;;6269737;22;20065;-86
2022/06/22 12:54:06;;;;;;;2.15;0.70;;;27.00;34.70;;;;;;6275578;22;20432;-93
2022/06/22 12:56:48;;;;;;;2.00;0.88;;;26.90;35.30;;;;;;6277884;22;20007;-92
2022/06/22 12:59:24;;;;;;;2.67;0.95;;;26.90;36.00;;;;;;6277462;22;20004;-91
2022/06/22 13:01:51;;;;;;;0.70;0.70;;;26.90;35.00;;;;;;6273762;22;20023;-85
2022/06/22 13:04:21;;;;;;;0.82;0.70;;;27.00;37.40;;;;;;6268068;22;20058;-84
2022/06/22 13:06:52;;;;;;;1.20;0.82;;;27.10;37.00;;;;;;6272897;22;20007;-92
2022/06/22 13:09:19;;;;;;;2.00;0.60;;;27.10;36.70;;;;;;6278089;22;20068;-93
2022/06/22 13:11:46;;;;;;;1.25;0.73;;;27.20;36.90;;;;;;6277345;22;20451;-91
2022/06/22 13:14:40;;;;;;;1.23;0.60;;;27.30;36.10;;;;;;6275205;22;20007;-93
2022/06/22 13:17:24;;;;;;;3.30;1.00;;;27.40;36.90;;;;;;6275359;22;20004;-91
2022/06/22 13:20:05;;;;;;;2.80;0.90;;;27.40;36.70;;;;;;6275078;22;20011;-91
2022/06/22 13:23:35;;;;;;;5.38;0.93;;;27.40;37.10;;;;;;6275631;22;20556;-91
2022/06/22 13:26:35;;;;;;;2.17;0.85;;;27.40;35.80;;;;;;6210062;23;20073;-91
2022/06/22 13:29:11;;;;;;;1.35;0.60;;;27.50;35.50;;;;;;6269069;22;20019;-86
2022/06/22 13:31:41;;;;;;;2.97;0.70;;;27.60;36.60;;;;;;6267537;22;20008;-85
2022/06/22 13:34:15;;;;;;;2.22;0.82;;;27.60;34.90;;;;;;6268539;22;20011;-87
2022/06/22 13:36:46;;;;;;;0.88;0.68;;;27.60;36.20;;;;;;6269931;22;20011;-86
2022/06/22 13:39:16;;;;;;;2.22;0.90;;;27.60;35.40;;;;;;6269975;22;20082;-85
2022/06/22 13:42:04;;;;;;;1.92;0.73;;;27.60;35.60;;;;;;6268630;22;20085;-85
2022/06/22 13:45:02;;;;;;;2.53;0.90;;;27.60;34.90;;;;;;6281548;22;20450;-85
2022/06/22 13:47:46;;;;;;;2.25;0.98;;;27.50;37.10;;;;;;6272077;22;20368;-85
2022/06/22 13:50:26;;;;;;;0.98;0.70;;;27.60;35.70;;;;;;6273797;22;20010;-85
2022/06/22 13:52:55;;;;;;;1.55;0.80;;;27.60;33.90;;;;;;6275121;22;20012;-84
2022/06/22 13:55:36;;;;;;;1.33;0.80;;;27.60;35.90;;;;;;6285485;22;20015;-93
2022/06/22 13:58:25;;;;;;;2.00;0.77;;;27.60;33.70;;;;;;6274845;22;20007;-91
2022/06/22 14:01:17;;;;;;;3.33;0.80;;;27.60;35.20;;;;;;6275404;22;20008;-93
2022/06/22 14:04:14;;;;;;;1.10;0.70;;;27.60;32.00;;;;;;6267179;22;20014;-93
2022/06/22 14:07:11;;;;;;;1.40;0.60;;;27.50;31.80;;;;;;6249930;22;20008;-92
2022/06/22 14:10:08;;;;;;;2.03;0.90;;;27.40;33.60;;;;;;6277022;22;20026;-91
2022/06/22 14:12:59;;;;;;;0.73;0.50;;;27.30;34.80;;;;;;6265812;22;20004;-93
2022/06/22 14:15:36;;;;;;;3.88;1.00;;;27.30;35.90;;;;;;6276202;22;20035;-92
2022/06/22 14:18:35;;;;;;;1.42;0.60;;;27.40;35.20;;;;;;6276440;22;20014;-92
2022/06/22 14:21:19;;;;;;;1.70;0.77;;;27.50;36.00;;;;;;6262554;22;20015;-93
2022/06/22 14:23:46;;;;;;;1.70;0.70;;;27.50;34.20;;;;;;6276994;22;20000;-92
2022/06/22 14:26:39;;;;;;;1.25;0.52;;;27.50;35.40;;;;;;6276513;22;20010;-94